Time;durP1;ratioP1;P1;durP2;ratioP2;P2;SDS_P1;SDS_P2;PMS_P1;PMS_P2;Temp;Humidity;BMP_temperature;BMP_pressure;BME280_temperature;BME280_humidity;BME280_pressure;Samples;Min_cycle;Max_cycle;Signal;HPM_P1;HPM_P2
2022/05/11 00:01:19;;;;;;;5.10;3.90;;;;;;;16.23;59.16;101675.47;5010422;28;20084;-83
2022/05/11 00:03:45;;;;;;;5.85;3.90;;;;;;;16.13;59.56;101667.31;4993755;28;20502;-82
2022/05/11 00:06:10;;;;;;;4.32;3.60;;;;;;;16.14;59.85;101658.53;5026286;28;20029;-82
2022/05/11 00:08:35;;;;;;;4.57;3.65;;;;;;;16.13;60.08;101672.53;5010233;28;20453;-83
2022/05/11 00:11:02;;;;;;;4.60;3.88;;;;;;;15.99;60.56;101660.22;4993475;28;20034;-82
2022/05/11 00:13:28;;;;;;;5.18;4.03;;;;;;;16.01;60.73;101657.50;4993296;28;20107;-82
2022/05/11 00:15:54;;;;;;;5.28;3.88;;;;;;;16.01;60.92;101657.50;4993602;28;20030;-82
2022/05/11 00:18:19;;;;;;;5.75;4.05;;;;;;;15.94;60.75;101643.97;4993533;28;20030;-82
2022/05/11 00:20:45;;;;;;;5.55;4.03;;;;;;;15.91;60.86;101632.84;4993444;28;20506;-82
2022/05/11 00:23:10;;;;;;;4.60;4.05;;;;;;;15.90;61.12;101644.22;5009810;28;20045;-82
2022/05/11 00:25:36;;;;;;;4.95;4.03;;;;;;;15.76;61.22;101637.16;5026146;28;20026;-82
2022/05/11 00:28:01;;;;;;;6.18;4.20;;;;;;;15.77;61.64;101631.00;5009579;28;20407;-82
2022/05/11 00:30:28;;;;;;;5.13;4.07;;;;;;;15.77;61.73;101652.72;5009754;28;20140;-82
2022/05/11 00:32:57;;;;;;;7.68;4.55;;;;;;;15.78;62.10;101646.56;4993499;28;20033;-82
2022/05/11 00:35:23;;;;;;;5.78;4.70;;;;;;;15.66;62.74;101634.22;4993586;28;20045;-82
2022/05/11 00:37:49;;;;;;;5.75;4.68;;;;;;;15.64;63.13;101640.44;5009716;28;20463;-82
2022/05/11 00:40:16;;;;;;;6.47;4.90;;;;;;;15.59;63.54;101640.63;4993485;28;20034;-82
2022/05/11 00:42:41;;;;;;;5.47;4.90;;;;;;;15.61;64.14;101651.03;4992889;28;20419;-83
2022/05/11 00:45:07;;;;;;;6.22;4.97;;;;;;;15.68;64.11;101649.78;5009683;28;20098;-82
2022/05/11 00:47:37;;;;;;;7.20;4.72;;;;;;;15.58;63.00;101644.19;4993589;28;20030;-82
2022/05/11 00:50:29;;;;;;;5.93;5.10;;;;;;;15.36;63.21;101618.41;4993247;28;20594;-83
2022/05/11 00:52:56;;;;;;;8.85;5.70;;;;;;;15.49;63.51;101649.88;5010453;28;20038;-83
2022/05/11 00:55:35;;;;;;;7.03;5.35;;;;;;;15.43;63.42;101645.81;4993389;28;20040;-82
2022/05/11 00:58:04;;;;;;;6.35;5.53;;;;;;;15.37;64.17;101645.31;4992785;28;20026;-82
2022/05/11 01:00:30;;;;;;;7.07;5.82;;;;;;;15.31;64.46;101649.06;4996462;28;20029;-82
2022/05/11 01:03:18;;;;;;;7.35;6.07;;;;;;;15.31;64.94;101651.69;4997157;28;20041;-82
2022/05/11 01:05:44;;;;;;;8.07;5.43;;;;;;;15.23;64.65;101653.84;4999161;28;20033;-84
2022/05/11 01:08:09;;;;;;;7.43;5.03;;;;;;;15.16;63.89;101649.91;4996887;28;20033;-82
2022/05/11 01:10:35;;;;;;;6.05;4.47;;;;;;;15.21;63.36;101646.13;4997115;28;20618;-83
2022/05/11 01:13:02;;;;;;;6.88;4.68;;;;;;;15.02;63.25;101640.16;4996351;28;20037;-82
2022/05/11 01:15:29;;;;;;;5.55;4.40;;;;;;;14.98;63.08;101637.81;4980440;28;20053;-82
2022/05/11 01:17:55;;;;;;;5.25;4.47;;;;;;;14.70;63.36;101607.09;4996669;28;20483;-82
2022/05/11 01:20:22;;;;;;;6.50;4.70;;;;;;;14.83;63.66;101642.03;4996842;28;20030;-83
2022/05/11 01:23:22;;;;;;;5.78;4.13;;;;;;;14.81;62.92;101630.84;4996699;28;20026;-82
2022/05/11 01:25:48;;;;;;;5.38;4.45;;;;;;;14.72;63.15;101631.31;4983054;28;20030;-82
2022/05/11 01:28:14;;;;;;;6.22;4.53;;;;;;;14.70;63.11;101635.75;4979917;28;20387;-82
2022/05/11 01:30:41;;;;;;;6.90;4.13;;;;;;;14.43;63.28;101589.28;5012797;28;20026;-82
2022/05/11 01:33:07;;;;;;;5.85;4.65;;;;;;;14.62;63.08;101626.56;5013629;28;20479;-83
2022/05/11 01:35:51;;;;;;;7.05;4.40;;;;;;;14.67;63.04;101649.78;4996223;28;20034;-82
2022/05/11 01:38:31;;;;;;;5.72;4.38;;;;;;;14.38;63.36;101635.56;5013797;28;20049;-83
2022/05/11 01:40:56;;;;;;;6.68;4.47;;;;;;;14.31;64.15;101641.97;5012234;28;20075;-82
2022/05/11 01:43:24;;;;;;;5.43;4.38;;;;;;;14.24;64.14;101643.16;4996193;28;20026;-83
2022/05/11 01:45:49;;;;;;;5.97;4.38;;;;;;;13.99;65.25;101639.16;4996292;28;20021;-82
2022/05/11 01:48:15;;;;;;;5.70;4.60;;;;;;;13.87;65.84;101629.31;5012091;28;20026;-82
2022/05/11 01:50:40;;;;;;;10.35;4.40;;;;;;;14.00;65.75;101646.03;4995661;28;20433;-82
2022/05/11 01:53:06;;;;;;;7.88;4.63;;;;;;;14.09;65.59;101651.72;4979475;28;20037;-82
2022/05/11 01:55:32;;;;;;;6.90;5.00;;;;;;;14.22;65.61;101663.22;4995751;28;20297;-82
2022/05/11 01:57:58;;;;;;;6.05;4.85;;;;;;;14.27;65.40;101658.66;4996000;28;20112;-82
2022/05/11 02:00:23;;;;;;;6.15;4.43;;;;;;;14.10;65.37;101643.00;4995595;28;20040;-82
2022/05/11 02:02:49;;;;;;;6.90;4.55;;;;;;;14.21;65.58;101662.38;4995817;28;20450;-83
2022/05/11 02:07:58;;;;;;;5.88;4.53;;;;;;;14.24;65.36;101657.03;5011995;28;20040;-83
2022/05/11 02:10:25;;;;;;;6.47;5.00;;;;;;;14.10;65.78;101648.19;4978655;28;20430;-82
2022/05/11 02:12:51;;;;;;;8.65;6.00;;;;;;;14.06;65.48;101656.16;4995550;28;20038;-82
2022/05/11 02:15:17;;;;;;;8.13;5.95;;;;;;;14.10;64.95;101650.81;5011667;28;20060;-82
2022/05/11 02:17:43;;;;;;;8.35;5.53;;;;;;;14.19;64.51;101663.38;4995601;28;20033;-82
2022/05/11 02:20:10;;;;;;;5.60;4.40;;;;;;;14.19;64.74;101660.78;4995568;28;20137;-83
2022/05/11 02:22:35;;;;;;;7.10;4.63;;;;;;;14.02;65.07;101646.78;4995598;28;20085;-83
2022/05/11 02:25:01;;;;;;;6.30;4.90;;;;;;;14.03;65.07;101658.88;5011442;28;20550;-83
2022/05/11 02:27:26;;;;;;;8.63;4.63;;;;;;;14.00;65.33;101653.84;4979156;28;20454;-82
2022/05/11 02:29:52;;;;;;;7.88;5.20;;;;;;;13.84;65.11;101619.03;5011615;28;20030;-82
2022/05/11 02:32:17;;;;;;;7.60;5.32;;;;;;;14.06;65.04;101658.75;5011678;28;20033;-82
2022/05/11 02:37:50;;;;;;;6.85;5.10;;;;;;;13.95;65.26;101644.53;4971110;28;20143;-82
2022/05/11 02:40:19;;;;;;;8.25;4.70;;;;;;;13.99;64.73;101649.56;4970923;28;20117;-83
2022/05/11 02:42:45;;;;;;;6.47;4.82;;;;;;;14.06;65.15;101657.94;4982336;28;20046;-82
2022/05/11 02:45:10;;;;;;;6.40;4.82;;;;;;;14.06;64.70;101639.72;4995076;28;20029;-82
2022/05/11 02:47:36;;;;;;;7.60;4.53;;;;;;;14.08;64.30;101643.06;4978782;28;20490;-82
2022/05/11 02:50:03;;;;;;;6.50;4.90;;;;;;;13.98;64.51;101647.88;5011025;28;20046;-82
2022/05/11 02:52:30;;;;;;;6.53;5.25;;;;;;;13.88;65.09;101644.00;4994905;28;20033;-83
2022/05/11 02:54:55;;;;;;;7.53;5.28;;;;;;;13.74;65.48;101636.81;4994569;28;20124;-83
2022/05/11 02:57:21;;;;;;;7.50;5.30;;;;;;;13.86;65.40;101655.38;4994566;28;20045;-83
2022/05/11 02:59:49;;;;;;;7.65;5.50;;;;;;;13.81;65.59;101636.56;4994508;28;20041;-83
2022/05/11 03:02:15;;;;;;;8.13;5.45;;;;;;;13.97;65.42;101651.38;4994833;28;20130;-82
2022/05/11 03:04:40;;;;;;;10.65;6.10;;;;;;;13.99;64.29;101644.34;4994461;28;20415;-85
2022/05/11 03:07:05;;;;;;;6.60;4.75;;;;;;;14.49;62.49;101638.50;4994588;28;20041;-85
2022/05/11 03:09:31;;;;;;;6.90;4.70;;;;;;;15.34;59.70;101651.53;4994099;28;20033;-85
2022/05/11 03:11:56;;;;;;;8.27;4.38;;;;;;;15.58;58.87;101659.81;4994473;28;20025;-85
2022/05/11 03:14:22;;;;;;;8.02;4.88;;;;;;;15.15;60.04;101645.59;4994483;28;20503;-85
2022/05/11 03:16:48;;;;;;;17.30;5.57;;;;;;;14.98;60.63;101656.06;5010853;28;20033;-85
2022/05/11 03:19:13;;;;;;;10.73;5.05;;;;;;;14.90;61.00;101646.00;4994254;28;20041;-85
2022/05/11 03:21:39;;;;;;;6.50;5.00;;;;;;;15.10;60.12;101643.22;4977334;28;20581;-85
2022/05/11 03:24:04;;;;;;;7.93;5.40;;;;;;;15.00;60.65;101649.81;4994375;28;20125;-85
2022/05/11 03:26:30;;;;;;;8.48;6.03;;;;;;;14.91;61.40;101655.50;4975785;28;20064;-86
2022/05/11 03:28:56;;;;;;;8.98;5.85;;;;;;;14.56;62.62;101663.34;4991149;28;20034;-85
2022/05/11 03:31:22;;;;;;;11.73;6.13;;;;;;;14.30;62.76;101638.53;4990744;28;20027;-85
2022/05/11 03:36:31;;;;;;;7.97;5.70;;;;;;;14.07;63.86;101652.66;4989990;28;20554;-84
2022/05/11 03:38:57;;;;;;;8.60;5.57;;;;;;;14.11;63.81;101665.50;4974235;28;20026;-84
2022/05/11 03:41:23;;;;;;;8.57;5.50;;;;;;;14.08;63.79;101663.88;4974118;28;20419;-85
2022/05/11 03:43:48;;;;;;;8.57;5.20;;;;;;;13.90;63.90;101649.13;4990201;28;20073;-84
2022/05/11 03:46:14;;;;;;;6.90;5.53;;;;;;;13.87;64.55;101668.34;4990016;28;20038;-84
2022/05/11 03:48:39;;;;;;;11.18;5.30;;;;;;;13.91;64.18;101675.06;4974214;28;20044;-83
2022/05/11 03:51:05;;;;;;;7.82;5.55;;;;;;;13.90;64.13;101688.16;4973800;28;20061;-84
2022/05/11 03:53:31;;;;;;;7.32;5.65;;;;;;;13.91;64.08;101685.47;4990096;28;20492;-84
2022/05/11 03:55:56;;;;;;;11.02;5.40;;;;;;;13.88;63.88;101683.03;4973995;28;20038;-84
2022/05/11 03:58:22;;;;;;;11.55;5.85;;;;;;;13.73;64.06;101671.56;4973253;28;20399;-84
2022/05/11 04:00:47;;;;;;;9.93;5.93;;;;;;;13.86;64.00;101702.19;4973958;28;20080;-85
2022/05/11 04:03:13;;;;;;;9.98;7.15;;;;;;;13.74;64.62;101695.81;4990370;28;20034;-84
2022/05/11 04:05:38;;;;;;;9.73;6.60;;;;;;;13.59;65.10;101678.31;4989734;28;20022;-84
2022/05/11 04:08:04;;;;;;;10.90;7.00;;;;;;;13.76;64.63;101699.16;4990389;28;20068;-83
2022/05/11 04:10:29;;;;;;;11.38;6.85;;;;;;;13.59;64.82;101670.50;4973855;28;20038;-84
2022/05/11 04:12:55;;;;;;;12.88;6.90;;;;;;;13.69;64.58;101684.78;4989985;28;20109;-82
2022/05/11 04:15:21;;;;;;;11.55;6.85;;;;;;;13.75;64.32;101687.09;4988918;28;20034;-82
2022/05/11 04:17:46;;;;;;;13.32;6.72;;;;;;;13.75;64.21;101705.28;4972859;28;20030;-86
2022/05/11 04:20:14;;;;;;;10.88;6.97;;;;;;;13.76;64.23;101700.03;4989083;28;20022;-86
2022/05/11 04:22:40;;;;;;;13.70;7.75;;;;;;;13.68;65.08;101719.50;4990238;28;20068;-85
2022/05/11 04:25:06;;;;;;;11.35;8.07;;;;;;;13.58;65.08;101698.25;4992846;28;20160;-83
2022/05/11 04:27:33;;;;;;;13.10;7.97;;;;;;;13.67;65.41;101728.22;5006323;28;20025;-86
2022/05/11 04:30:00;;;;;;;13.25;8.50;;;;;;;13.62;66.18;101735.34;4976176;28;20483;-89
2022/05/11 04:32:25;;;;;;;12.75;8.05;;;;;;;13.52;66.29;101718.47;5009596;28;20030;-92
2022/05/11 04:34:51;;;;;;;12.98;8.68;;;;;;;13.65;66.27;101730.00;4998453;28;20042;-92
2022/05/11 04:37:16;;;;;;;12.85;8.30;;;;;;;13.71;66.27;101725.41;5003114;28;20025;-84
2022/05/11 04:39:42;;;;;;;11.18;8.77;;;;;;;13.74;66.44;101732.22;5013160;28;20037;-85
2022/05/11 04:42:08;;;;;;;12.10;8.43;;;;;;;13.84;66.78;101735.25;5012813;28;20045;-83
2022/05/11 04:44:33;;;;;;;14.38;8.50;;;;;;;13.94;66.51;101734.75;4980499;28;20479;-84
2022/05/11 04:46:59;;;;;;;11.50;7.85;;;;;;;14.01;66.78;101737.94;4996035;28;20034;-83
2022/05/11 04:49:25;;;;;;;14.25;8.23;;;;;;;13.99;67.54;101734.56;5012533;28;20054;-93
2022/05/11 04:52:00;;;;;;;12.88;8.95;;;;;;;14.07;67.47;101737.66;5028874;28;20113;-87
2022/05/11 04:54:26;;;;;;;13.30;10.07;;;;;;;13.92;67.70;101702.78;4988008;28;20037;-85
2022/05/11 04:56:51;;;;;;;12.50;8.50;;;;;;;14.20;67.72;101737.94;5026923;28;20034;-85
2022/05/11 04:59:18;;;;;;;11.95;9.27;;;;;;;14.14;68.07;101706.97;5010560;28;20026;-91
2022/05/11 05:01:45;;;;;;;15.75;11.23;;;;;;;14.33;68.28;101718.22;4997059;28;20041;-92
2022/05/11 05:04:10;;;;;;;26.05;20.80;;;;;;;14.34;68.16;101719.91;5023285;28;20092;-87
2022/05/11 05:06:38;;;;;;;15.07;9.88;;;;;;;14.34;68.64;101712.09;4994243;28;20450;-90
2022/05/11 05:09:04;;;;;;;16.92;9.93;;;;;;;14.57;67.88;101722.31;5001208;28;20037;-90
2022/05/11 05:11:30;;;;;;;13.02;9.18;;;;;;;14.70;67.24;101724.31;4980817;28;20488;-86
2022/05/11 05:13:56;;;;;;;14.93;9.73;;;;;;;14.86;66.48;101733.06;4980319;28;20121;-89
2022/05/11 05:16:22;;;;;;;14.18;9.18;;;;;;;14.88;66.21;101726.00;4981015;28;20054;-90
2022/05/11 05:18:51;;;;;;;14.38;9.07;;;;;;;14.95;65.88;101739.59;5011647;28;20084;-92
2022/05/11 05:21:17;;;;;;;11.65;8.82;;;;;;;15.05;65.87;101736.44;4973190;28;20061;-83
2022/05/11 05:23:42;;;;;;;11.57;7.93;;;;;;;15.11;65.70;101743.94;4993036;28;20088;-86
2022/05/11 05:26:08;;;;;;;9.13;7.28;;;;;;;15.07;65.54;101742.44;4971885;28;20439;-84
2022/05/11 05:31:21;;;;;;;10.98;7.07;;;;;;;15.32;65.17;101751.59;4998530;28;20461;-90
2022/05/11 05:33:46;;;;;;;11.68;7.38;;;;;;;15.47;64.71;101743.84;4991835;28;20113;-85
2022/05/11 05:36:12;;;;;;;8.85;7.00;;;;;;;15.60;64.27;101748.41;4991491;28;20125;-84
2022/05/11 05:38:38;;;;;;;10.07;7.25;;;;;;;15.72;64.29;101753.88;5009052;28;20084;-86
2022/05/11 05:41:08;;;;;;;13.57;7.43;;;;;;;15.62;64.12;101747.44;5010353;28;20030;-89
2022/05/11 05:43:33;;;;;;;14.35;7.50;;;;;;;15.78;63.78;101748.34;4991988;28;20462;-87
2022/05/11 05:45:59;;;;;;;9.73;7.35;;;;;;;15.80;63.15;101729.13;4991940;28;20487;-86
2022/05/11 05:48:24;;;;;;;13.68;6.88;;;;;;;16.11;62.88;101752.66;4993683;28;20041;-85
2022/05/11 05:50:50;;;;;;;12.07;7.53;;;;;;;16.17;62.59;101752.34;5009337;28;20093;-85
2022/05/11 05:53:19;;;;;;;13.98;9.43;;;;;;;16.25;62.20;101738.88;5023480;28;20034;-86
2022/05/11 05:55:48;;;;;;;11.43;7.47;;;;;;;16.42;62.43;101740.53;4979364;28;20483;-87
2022/05/11 05:58:14;;;;;;;9.45;7.18;;;;;;;16.45;61.88;101730.78;4993888;28;20030;-86
2022/05/11 06:00:40;;;;;;;9.98;7.22;;;;;;;16.68;61.83;101754.75;4985761;28;20532;-82
2022/05/11 06:03:05;;;;;;;12.35;7.55;;;;;;;16.79;61.36;101752.41;5009171;28;20109;-88
2022/05/11 06:05:31;;;;;;;10.73;6.82;;;;;;;16.91;60.95;101755.19;5004028;28;20033;-84
2022/05/11 06:07:56;;;;;;;8.60;6.95;;;;;;;16.83;60.91;101746.94;5006744;28;20037;-88
2022/05/11 06:10:26;;;;;;;9.50;7.10;;;;;;;16.94;61.02;101751.53;4992693;28;20538;-87
2022/05/11 06:12:52;;;;;;;8.25;6.95;;;;;;;17.08;60.90;101746.34;5008964;28;20037;-85
2022/05/11 06:15:17;;;;;;;8.93;7.25;;;;;;;17.15;60.52;101758.13;5001677;28;20852;-87
2022/05/11 06:17:43;;;;;;;8.90;7.40;;;;;;;17.26;60.23;101744.41;4986343;28;20025;-85
2022/05/11 06:20:09;;;;;;;9.60;6.90;;;;;;;17.42;60.08;101742.59;4987739;28;20033;-87
2022/05/11 06:22:35;;;;;;;11.70;7.80;;;;;;;17.56;59.54;101748.75;5003068;28;20030;-84
2022/05/11 06:25:01;;;;;;;10.27;7.28;;;;;;;17.52;58.92;101731.56;5010695;28;20072;-80
2022/05/11 06:27:26;;;;;;;8.27;6.75;;;;;;;17.68;58.65;101738.38;4989506;28;20419;-92
2022/05/11 06:29:53;;;;;;;11.18;6.60;;;;;;;17.80;58.89;101749.91;5004569;28;20045;-85
2022/05/11 06:32:19;;;;;;;8.07;6.70;;;;;;;17.88;58.43;101746.81;4982629;28;20030;-83
2022/05/11 06:34:45;;;;;;;11.73;7.90;;;;;;;18.04;58.07;101748.38;4987887;28;20033;-86
2022/05/11 06:37:11;;;;;;;10.18;7.63;;;;;;;18.12;57.69;101744.47;5036573;28;20033;-87
2022/05/11 06:39:36;;;;;;;10.23;6.88;;;;;;;18.36;57.08;101753.38;4970487;28;20037;-90
2022/05/11 06:42:07;;;;;;;11.13;7.40;;;;;;;18.28;57.03;101719.78;5003857;28;20042;-84
2022/05/11 06:44:33;;;;;;;13.25;8.75;;;;;;;18.66;57.18;101749.75;5004202;28;20802;-84
2022/05/11 06:46:59;;;;;;;12.18;7.93;;;;;;;18.62;56.56;101746.47;4987459;28;20029;-83
2022/05/11 06:49:24;;;;;;;11.98;8.45;;;;;;;18.63;56.92;101733.25;4985565;28;20056;-86
2022/05/11 06:51:50;;;;;;;11.52;7.80;;;;;;;18.83;56.27;101736.38;4970382;28;20263;-89
2022/05/11 06:59:43;;;;;;;6.88;6.00;;;;;;;19.32;54.34;101736.56;5002585;28;20065;-87
2022/05/11 07:02:09;;;;;;;7.20;6.03;;;;;;;19.44;54.06;101738.34;5007040;28;20034;-84
2022/05/11 07:04:37;;;;;;;17.25;12.75;;;;;;;19.48;53.41;101736.38;4984626;28;20030;-87
2022/05/11 07:07:04;;;;;;;10.80;7.00;;;;;;;19.47;53.66;101721.56;4985299;28;20026;-90
2022/05/11 07:09:31;;;;;;;20.27;12.27;;;;;;;19.68;53.94;101735.84;5006384;28;20034;-85
2022/05/11 07:14:41;;;;;;;11.82;8.35;;;;;;;19.37;54.39;101725.72;4993935;28;20113;-85
2022/05/11 07:17:06;;;;;;;8.70;6.63;;;;;;;19.62;53.05;101717.91;5005910;28;20046;-84
2022/05/11 07:19:33;;;;;;;7.63;5.97;;;;;;;19.92;52.25;101727.19;4986003;28;20034;-85
2022/05/11 07:21:58;;;;;;;6.72;5.90;;;;;;;19.89;51.60;101711.66;4983815;28;20114;-87
2022/05/11 07:24:24;;;;;;;11.10;7.50;;;;;;;20.20;52.31;101719.03;5002530;28;20113;-91
2022/05/11 07:26:50;;;;;;;10.55;6.10;;;;;;;20.29;50.67;101702.59;4997981;28;20038;-93
2022/05/11 07:29:16;;;;;;;6.10;5.18;;;;;;;20.39;49.44;101689.63;4982637;28;20033;-86
2022/05/11 07:31:43;;;;;;;11.93;9.60;;;;;;;20.79;49.28;101728.75;5000444;28;20037;-87
2022/05/11 07:34:08;;;;;;;12.70;6.40;;;;;;;21.00;48.70;101721.06;4988382;28;20113;-90
2022/05/11 07:36:34;;;;;;;22.35;14.88;;;;;;;21.24;47.30;101713.94;4970482;28;20168;-87
2022/05/11 07:39:01;;;;;;;7.20;5.55;;;;;;;21.35;47.76;101724.50;5035641;28;20695;-89
2022/05/11 07:41:26;;;;;;;11.57;5.43;;;;;;;21.45;47.37;101722.00;4970846;28;20036;-84
2022/05/11 07:43:52;;;;;;;6.57;5.22;;;;;;;21.54;47.01;101721.28;4985020;28;20676;-91
2022/05/11 07:46:26;;;;;;;6.70;5.20;;;;;;;21.38;47.07;101690.03;4988017;28;20034;-95
2022/05/11 07:48:52;;;;;;;7.10;5.40;;;;;;;21.58;47.24;101727.16;5003598;28;20139;-84
2022/05/11 07:51:17;;;;;;;7.00;6.30;;;;;;;21.66;46.37;101716.84;5003720;28;20042;-85
2022/05/11 07:53:46;;;;;;;7.65;5.10;;;;;;;21.74;46.36;101706.56;4998572;28;20056;-88
2022/05/11 08:01:40;;;;;;;8.00;5.18;;;;;;;22.32;45.54;101728.28;4984912;28;20574;-83
2022/05/11 08:04:05;;;;;;;7.30;4.95;;;;;;;22.34;45.01;101718.44;4985407;28;20034;-89
2022/05/11 08:06:31;;;;;;;7.18;4.95;;;;;;;22.35;46.76;101725.38;5003137;28;20038;-86
2022/05/11 08:08:56;;;;;;;6.95;4.53;;;;;;;22.30;43.47;101703.81;4982976;28;20061;-84
2022/05/11 08:11:22;;;;;;;7.57;4.88;;;;;;;22.63;43.46;101728.41;5001786;28;20034;-87
2022/05/11 08:13:47;;;;;;;5.90;4.20;;;;;;;22.70;42.07;101716.38;4985603;28;20033;-85
2022/05/11 08:16:14;;;;;;;5.45;4.30;;;;;;;22.80;41.45;101719.91;5003596;28;20407;-88
2022/05/11 08:18:39;;;;;;;6.38;4.13;;;;;;;22.97;41.19;101722.03;4986125;28;20034;-84
2022/05/11 08:21:05;;;;;;;12.52;5.30;;;;;;;23.14;41.30;101726.72;5001880;28;20030;-91
2022/05/11 08:23:31;;;;;;;6.70;4.40;;;;;;;23.04;39.70;101701.25;4998512;28;20101;-83
2022/05/11 08:25:57;;;;;;;5.55;3.67;;;;;;;23.31;37.96;101713.91;4984975;28;20042;-85
2022/05/11 08:28:23;;;;;;;7.32;3.90;;;;;;;23.33;40.33;101714.59;4978051;28;20176;-87
2022/05/11 08:33:34;;;;;;;9.13;4.70;;;;;;;23.19;39.82;101690.19;4995747;28;20036;-86
2022/05/11 08:36:03;;;;;;;7.82;5.88;;;;;;;23.32;39.01;101707.66;5010226;28;20057;-90
2022/05/11 08:38:31;;;;;;;4.20;3.60;;;;;;;23.38;38.99;101701.81;4988396;28;20479;-85
2022/05/11 08:41:06;;;;;;;9.35;5.80;;;;;;;23.46;39.53;101713.41;4987937;28;20037;-87
2022/05/11 08:43:32;;;;;;;4.35;3.40;;;;;;;23.48;37.84;101702.69;5011524;28;20499;-90
2022/05/11 08:46:38;;;;;;;5.57;3.55;;;;;;;23.61;38.49;101719.22;4971061;28;20092;-86
2022/05/11 08:49:38;;;;;;;4.63;3.60;;;;;;;23.73;37.29;101723.41;5002826;28;20519;-88
2022/05/11 08:52:05;;;;;;;6.97;4.18;;;;;;;23.67;38.12;101707.25;5002433;28;20045;-86
2022/05/11 08:54:39;;;;;;;6.97;4.20;;;;;;;23.86;38.31;101717.88;5000455;28;20030;-84
2022/05/11 08:57:17;;;;;;;5.97;4.13;;;;;;;23.88;37.27;101708.00;5000153;28;20037;-85
2022/05/11 08:59:43;;;;;;;5.13;3.58;;;;;;;23.99;37.95;101709.69;4984906;28;20053;-89
2022/05/11 09:02:19;;;;;;;5.05;3.53;;;;;;;24.09;37.44;101713.22;5006116;28;20565;-85
2022/05/11 09:04:48;;;;;;;5.82;3.42;;;;;;;24.24;38.02;101697.78;5000690;28;20133;-87
2022/05/11 09:07:14;;;;;;;9.57;4.20;;;;;;;24.36;37.83;101711.75;5038126;28;20042;-87
2022/05/11 09:09:39;;;;;;;7.28;3.92;;;;;;;24.38;36.72;101709.78;5007306;28;20045;-86
2022/05/11 09:12:06;;;;;;;4.50;4.10;;;;;;;24.39;36.07;101706.19;4990946;28;20041;-88
2022/05/11 09:14:32;;;;;;;6.07;3.20;;;;;;;24.52;35.73;101715.50;4990732;28;20117;-85
2022/05/11 09:16:57;;;;;;;4.30;3.17;;;;;;;24.59;35.92;101710.50;5007870;28;20132;-86
2022/05/11 09:19:32;;;;;;;7.88;3.80;;;;;;;24.63;36.10;101684.59;4989969;28;20068;-87
2022/05/11 09:22:06;;;;;;;3.70;2.60;;;;;;;24.69;33.90;101694.63;4992465;28;20026;-87
2022/05/11 09:24:46;;;;;;;9.00;6.90;;;;;;;24.40;34.08;101686.72;4992041;28;20026;-85
2022/05/11 09:27:24;;;;;;;4.18;3.08;;;;;;;24.35;34.48;101673.06;5007559;28;20431;-87
2022/05/11 09:29:56;;;;;;;9.32;3.78;;;;;;;24.47;33.99;101685.16;5022493;28;20585;-85
2022/05/11 09:32:25;;;;;;;5.50;3.38;;;;;;;24.66;35.51;101703.66;5008359;28;20085;-84
2022/05/11 09:34:51;;;;;;;3.95;2.70;;;;;;;24.80;33.64;101692.66;5009316;28;20403;-85
2022/05/11 09:37:23;;;;;;;4.15;3.00;;;;;;;25.06;33.64;101689.41;4993239;28;20030;-84
2022/05/11 09:39:53;;;;;;;5.28;2.85;;;;;;;25.09;33.94;101670.63;4993952;28;20038;-84
2022/05/11 09:42:20;;;;;;;3.72;3.10;;;;;;;25.16;33.02;101676.97;4994345;28;20099;-86
2022/05/11 09:44:48;;;;;;;4.07;2.70;;;;;;;25.10;31.59;101680.22;4995075;28;20220;-91
2022/05/11 09:47:27;;;;;;;5.53;2.80;;;;;;;25.39;31.94;101677.47;4996066;28;20038;-85
2022/05/11 09:49:54;;;;;;;4.28;2.50;;;;;;;25.40;32.35;101677.31;5011996;28;20422;-88
2022/05/11 09:52:34;;;;;;;5.10;2.75;;;;;;;25.65;31.48;101690.84;4995106;28;20034;-88
2022/05/11 09:54:59;;;;;;;3.65;2.50;;;;;;;25.81;30.90;101672.53;4996518;28;20056;-90
2022/05/11 09:57:27;;;;;;;4.82;2.38;;;;;;;25.82;30.08;101650.34;5010788;28;20418;-85
2022/05/11 10:00:14;;;;;;;4.05;2.30;;;;;;;25.98;29.81;101674.38;5012426;28;20037;-88
2022/05/11 10:02:40;;;;;;;3.75;2.40;;;;;;;26.12;30.30;101674.84;4986515;28;20081;-87
2022/05/11 10:05:10;;;;;;;3.88;3.03;;;;;;;26.34;30.29;101668.25;5028576;28;20109;-91
2022/05/11 10:07:44;;;;;;;7.55;5.65;;;;;;;26.30;30.79;101667.72;5010434;28;20026;-87
2022/05/11 10:10:31;;;;;;;3.58;3.10;;;;;;;26.34;30.79;101663.75;5012562;28;20057;-85
2022/05/11 10:13:05;;;;;;;3.80;2.50;;;;;;;26.56;28.98;101663.34;5011401;28;20040;-84
2022/05/11 10:24:20;;;;;;;3.35;2.40;;;;;;;26.98;24.86;101662.63;5009622;28;20123;-83
2022/05/11 10:26:58;;;;;;;4.22;2.60;;;;;;;26.74;25.99;101619.97;4993416;28;20165;-85
2022/05/11 10:29:38;;;;;;;5.15;2.33;;;;;;;26.84;26.85;101656.06;5014507;28;20030;-84
2022/05/11 10:32:24;;;;;;;4.53;2.70;;;;;;;26.67;27.47;101638.38;4997166;28;20053;-83
2022/05/11 10:35:04;;;;;;;3.35;2.30;;;;;;;26.62;26.05;101634.50;5004660;28;20034;-82
2022/05/11 10:38:07;;;;;;;6.00;2.80;;;;;;;26.74;26.46;101649.19;5002081;28;20034;-83
2022/05/11 10:40:51;;;;;;;3.05;2.30;;;;;;;26.87;26.14;101644.31;5025649;28;20026;-82
2022/05/11 10:43:31;;;;;;;4.50;2.47;;;;;;;26.81;26.70;101644.91;5021920;28;20126;-82
2022/05/11 10:45:59;;;;;;;4.15;2.83;;;;;;;26.78;26.96;101639.94;5014701;28;20037;-85
2022/05/11 10:49:15;;;;;;;5.03;2.42;;;;;;;26.95;27.37;101651.50;4977732;28;20034;-86
2022/05/11 10:51:47;;;;;;;3.83;2.90;;;;;;;26.95;28.05;101640.88;5001749;28;20050;-85
2022/05/11 10:54:32;;;;;;;4.45;2.70;;;;;;;27.13;26.56;101645.13;5010527;28;20022;-86
2022/05/11 10:57:00;;;;;;;5.57;2.90;;;;;;;27.36;25.35;101634.78;5009538;28;20475;-86
2022/05/11 10:59:53;;;;;;;12.80;5.03;;;;;;;27.35;23.99;101619.00;5003358;28;20033;-83
2022/05/11 11:02:56;;;;;;;3.97;2.70;;;;;;;27.21;23.06;101630.22;5006605;28;20526;-86
2022/05/11 11:05:40;;;;;;;4.30;2.70;;;;;;;27.06;23.07;101617.56;5002921;28;20670;-81
2022/05/11 11:08:24;;;;;;;7.20;2.75;;;;;;;27.02;23.12;101637.44;4989024;28;20136;-82
2022/05/11 11:10:53;;;;;;;4.75;2.90;;;;;;;26.76;24.22;101584.34;5022190;28;20049;-84
2022/05/11 11:13:28;;;;;;;5.20;2.85;;;;;;;26.90;24.71;101625.41;4997451;28;20027;-85
2022/05/11 11:15:53;;;;;;;3.83;2.50;;;;;;;27.04;24.01;101614.22;5010808;28;20037;-86
2022/05/11 11:18:40;;;;;;;6.22;2.97;;;;;;;27.10;24.17;101610.09;4993348;28;20033;-84
2022/05/11 11:21:08;;;;;;;6.07;3.22;;;;;;;26.95;24.73;101622.28;5009006;28;20036;-83
2022/05/11 11:23:41;;;;;;;6.00;3.15;;;;;;;26.77;24.56;101627.66;4995484;28;20022;-85
2022/05/11 11:26:30;;;;;;;3.58;2.50;;;;;;;26.68;24.21;101612.66;5009523;28;20037;-82
2022/05/11 11:28:55;;;;;;;4.07;2.80;;;;;;;26.52;24.59;101614.19;4990578;28;20050;-83
2022/05/11 11:31:28;;;;;;;6.75;2.70;;;;;;;26.72;24.64;101603.38;4999247;28;20018;-88
2022/05/11 11:33:54;;;;;;;6.22;2.90;;;;;;;26.78;24.39;101613.38;4998609;28;20476;-85
2022/05/11 11:36:28;;;;;;;5.10;2.88;;;;;;;26.49;24.32;101587.16;4991140;28;20022;-87
2022/05/11 11:39:14;;;;;;;4.43;2.50;;;;;;;26.55;23.87;101603.28;5023407;28;20511;-88
2022/05/11 11:41:42;;;;;;;3.78;2.67;;;;;;;26.74;25.03;101578.34;4987801;28;20052;-87
2022/05/11 11:44:24;;;;;;;5.22;3.47;;;;;;;26.85;25.60;101609.13;4995997;28;20030;-94
2022/05/11 11:46:50;;;;;;;5.93;3.40;;;;;;;26.95;25.58;101603.69;5004545;28;20022;-87
2022/05/11 11:49:18;;;;;;;6.50;3.85;;;;;;;26.99;25.93;101616.47;4997503;28;20030;-86
2022/05/11 11:52:00;;;;;;;8.07;2.70;;;;;;;27.11;25.58;101615.25;4999467;28;20073;-83
2022/05/11 11:54:38;;;;;;;3.13;2.45;;;;;;;27.05;24.75;101607.94;5004848;28;20072;-88
2022/05/11 11:57:04;;;;;;;4.57;2.60;;;;;;;26.90;25.65;101604.16;5005838;28;20026;-84
2022/05/11 11:59:29;;;;;;;4.40;2.55;;;;;;;26.89;25.21;101594.53;5013710;28;20018;-94
2022/05/11 12:02:03;;;;;;;6.22;2.78;;;;;;;27.03;25.63;101596.59;5004740;28;20645;-84
2022/05/11 12:04:35;;;;;;;7.80;3.05;;;;;;;27.19;25.16;101600.34;4991903;28;20057;-88
2022/05/11 12:16:24;;;;;;;5.00;2.73;;;;;;;27.18;24.19;101561.50;5007311;28;20044;-86